Fes, Morocco
Current Conditions -  °F | °C
As of 1:00 PM on Wednesday 22 Oct 2014 (Local Time) from GMFF Reporting Station
Clear Clear  
Wind Chill: 90°   Ceiling: Unl
Heat Index: 90°   Visibility: 6mi
Dew Point: 30°   Wind: 15mph
Humidity: 12%   Direction: 50°NE
Pressure: 30.21"   Gusts: NA
Location:  34.05°N, 5°W
Report Text: GMFF 221200Z 05013KT 010V110 CAVOK 32/M01 Q1023 NOSIG
Loading
Personal Weather Stations






























Interactive Weather Map New forecast layout! Learn more

10-Day Weather Forecast

Advertisements
Track Severe Weather on mobile